»·PEaware :: AAL2016 KPHX-KSFO

AAL2016 :: KPHX-KSFO

FLIGHT INFORMATION

Flight Status: Arrived
Operator:
American Airlines
More flights by this operator :: More flights under this callsign
Pilot: Ian W. (8517)
Aircraft: BOEING 737-800
(B738)
More flights by this aircraft type
Origin: KPHX Phoenix Sky Harbor Intl
United States
Destination: KSFO San Francisco Intl
United States
More flights between these airports :: More routes between these airports
Route: KEENS2 HRRBR CURIV J212 DECAS PMD AVE MAKRS SERFR SERFR4
File this flight plan on PilotEdge
Remarks: RMK / SIMBRIEF
Altitude:
(Current/Filed)
32,000ft
Speed:
(Current/Filed)
431kts
Departed: 01-Oct-22 03:36 PM
Arrived: 01-Oct-22 05:11 PM
Distance/Time
Traveled:
565nm/1:34
Distance/Time
To Go:
Arrived

Flight Plot

Page will automatically refresh every two minutes.

Flight plan parsing failed; only flown route is shown


Map Options




Map Legend


Flown Route
Filed Route
Departure Airport
Arrival Airport
Navaid (VOR, NDB)
Fix

Horizontal Profiles

Position Reports

Time Latitude Longitude Heading Altitude Ground
Speed
01-Oct-22 14:57 33.438328 -112.002546 138 1131ft 0kts
01-Oct-22 14:58 33.438328 -112.002546 138 1131ft 0kts
01-Oct-22 14:59 33.438328 -112.002546 138 1131ft 0kts
01-Oct-22 15:00 33.438328 -112.002546 138 1131ft 0kts
01-Oct-22 15:01 33.438328 -112.002546 138 1131ft 0kts
01-Oct-22 15:02 33.438328 -112.002546 138 1131ft 0kts
01-Oct-22 15:03 33.438328 -112.002546 138 1131ft 0kts
01-Oct-22 15:04 33.438328 -112.002546 138 1131ft 0kts
01-Oct-22 15:05 33.438328 -112.002546 138 1131ft 0kts
01-Oct-22 15:06 33.438328 -112.002546 138 1131ft 0kts
01-Oct-22 15:07 33.438328 -112.002546 138 1131ft 0kts
01-Oct-22 15:08 33.438328 -112.002546 138 1131ft 0kts
01-Oct-22 15:09 33.438328 -112.002546 138 1131ft 0kts
01-Oct-22 15:10 33.438328 -112.002546 138 1131ft 0kts
01-Oct-22 15:11 33.438328 -112.002546 138 1131ft 0kts
01-Oct-22 15:12 33.438328 -112.002546 138 1131ft 0kts
01-Oct-22 15:13 33.438328 -112.002546 138 1131ft 0kts
01-Oct-22 15:14 33.438328 -112.002546 138 1131ft 0kts
01-Oct-22 15:15 33.438328 -112.002547 138 1131ft 0kts
01-Oct-22 15:16 33.438328 -112.002547 138 1131ft 0kts
01-Oct-22 15:17 33.438328 -112.002547 138 1131ft 0kts
01-Oct-22 15:18 33.438328 -112.002547 138 1131ft 0kts
01-Oct-22 15:19 33.438328 -112.002547 138 1131ft 0kts
01-Oct-22 15:20 33.438328 -112.002547 138 1131ft 0kts
01-Oct-22 15:21 33.438328 -112.002547 138 1131ft 0kts
01-Oct-22 15:22 33.438328 -112.002547 138 1131ft 0kts
01-Oct-22 15:23 33.438328 -112.002547 138 1131ft 0kts
01-Oct-22 15:24 33.438328 -112.002547 138 1131ft 0kts
01-Oct-22 15:25 33.438465 -112.002956 50 1131ft 2kts
01-Oct-22 15:26 33.438256 -112.003046 359 1131ft 0kts
01-Oct-22 15:27 33.438257 -112.003046 359 1131ft 0kts
01-Oct-22 15:28 33.438257 -112.003046 359 1131ft 0kts
01-Oct-22 15:30 33.439753 -112.004717 269 1131ft 13kts
01-Oct-22 15:31 33.439757 -112.009545 270 1128ft 19kts
01-Oct-22 15:32 33.439768 -112.016752 270 1124ft 23kts
01-Oct-22 15:33 33.439774 -112.023271 269 1118ft 20kts
01-Oct-22 15:34 33.439835 -112.029355 296 1115ft 0kts
01-Oct-22 15:35 33.440852 -112.028588 89 1115ft 36kts
01-Oct-22 15:36 33.441045 -111.979072 91 1952ft 213kts
01-Oct-22 15:37 33.436606 -111.899938 96 5022ft 248kts
01-Oct-22 15:38 33.393561 -111.845716 179 8210ft 252kts
01-Oct-22 15:39 33.352516 -111.902301 274 11063ft 270kts
01-Oct-22 15:40 33.363936 -112.001374 276 12462ft 342kts
01-Oct-22 15:41 33.381509 -112.123011 279 14492ft 386kts
01-Oct-22 15:42 33.400096 -112.251312 278 17331ft 400kts
01-Oct-22 15:43 33.418904 -112.384407 278 19987ft 413kts
01-Oct-22 15:44 33.438771 -112.521934 278 22336ft 425kts
01-Oct-22 15:45 33.450650 -112.663503 269 24715ft 432kts
01-Oct-22 15:46 33.458662 -112.808131 279 27028ft 440kts
01-Oct-22 15:47 33.486125 -112.948513 281 29726ft 429kts
01-Oct-22 15:48 33.512974 -113.088317 280 31347ft 435kts
01-Oct-22 15:48 33.533266 -113.207569 279 31852ft 439kts
01-Oct-22 15:50 33.560408 -113.374434 280 31857ft 444kts
01-Oct-22 15:51 33.586064 -113.519483 281 31853ft 443kts
01-Oct-22 15:52 33.612758 -113.663771 281 31834ft 444kts
01-Oct-22 15:52 33.635057 -113.784407 281 31817ft 444kts
01-Oct-22 15:53 33.661653 -113.928876 281 31817ft 444kts
01-Oct-22 15:54 33.688101 -114.073277 281 31817ft 444kts
01-Oct-22 15:56 33.718802 -114.242150 281 31816ft 444kts
01-Oct-22 15:57 33.744827 -114.386392 281 31816ft 444kts
01-Oct-22 15:57 33.766271 -114.507184 280 31816ft 444kts
01-Oct-22 15:58 33.779355 -114.654727 273 31816ft 443kts
01-Oct-22 15:59 33.788007 -114.802768 272 31817ft 443kts
01-Oct-22 16:00 33.796359 -114.950208 272 31816ft 443kts
01-Oct-22 16:01 33.804513 -115.097646 273 31816ft 441kts
01-Oct-22 16:02 33.812439 -115.244235 273 31813ft 440kts
01-Oct-22 16:03 33.820273 -115.390781 274 31790ft 440kts
01-Oct-22 16:04 33.848845 -115.533115 290 31780ft 440kts
01-Oct-22 16:05 33.892820 -115.671028 290 31780ft 441kts
01-Oct-22 16:06 33.936724 -115.808334 290 31792ft 441kts
01-Oct-22 16:07 33.980656 -115.946123 290 31837ft 441kts
01-Oct-22 16:08 34.024423 -116.083949 290 31882ft 441kts
01-Oct-22 16:09 34.068054 -116.221948 290 31909ft 441kts
01-Oct-22 16:10 34.111614 -116.360351 290 31875ft 441kts
01-Oct-22 16:11 34.154873 -116.498424 290 31866ft 441kts
01-Oct-22 16:12 34.198036 -116.636941 290 31832ft 441kts
01-Oct-22 16:13 34.240967 -116.775277 290 31871ft 440kts
01-Oct-22 16:14 34.283700 -116.913597 290 31908ft 440kts
01-Oct-22 16:15 34.326398 -117.052436 289 31919ft 442kts
01-Oct-22 16:16 34.369070 -117.191841 289 31938ft 443kts
01-Oct-22 16:17 34.411605 -117.331469 289 31944ft 442kts
01-Oct-22 16:18 34.454039 -117.471408 289 31944ft 442kts
01-Oct-22 16:19 34.496071 -117.610675 289 31945ft 442kts
01-Oct-22 16:20 34.538165 -117.750886 289 31935ft 441kts
01-Oct-22 16:21 34.579982 -117.890881 289 31923ft 442kts
01-Oct-22 16:22 34.622693 -118.030112 293 31923ft 443kts
01-Oct-22 16:23 34.684493 -118.159369 301 31924ft 443kts
01-Oct-22 16:24 34.751725 -118.284741 302 31918ft 444kts
01-Oct-22 16:25 34.819221 -118.410015 302 31933ft 444kts
01-Oct-22 16:26 34.886832 -118.535608 302 31992ft 444kts
01-Oct-22 16:27 34.953802 -118.660416 301 32009ft 439kts
01-Oct-22 16:28 35.020115 -118.784449 301 32008ft 435kts
01-Oct-22 16:29 35.085869 -118.907838 302 31908ft 436kts
01-Oct-22 16:30 35.152035 -119.032432 302 31824ft 437kts
01-Oct-22 16:31 35.217877 -119.156801 302 31817ft 438kts
01-Oct-22 16:32 35.283655 -119.281514 302 31817ft 437kts
01-Oct-22 16:33 35.349581 -119.406935 302 31816ft 438kts
01-Oct-22 16:34 35.415218 -119.532283 302 31816ft 436kts
01-Oct-22 16:35 35.480618 -119.657632 302 31817ft 438kts
01-Oct-22 16:36 35.545784 -119.783075 301 31820ft 437kts
01-Oct-22 16:37 35.610878 -119.908771 302 31888ft 437kts
01-Oct-22 16:38 35.653482 -120.046642 279 31950ft 435kts
01-Oct-22 16:39 35.668282 -120.194514 277 31945ft 436kts
01-Oct-22 16:40 35.686875 -120.341286 286 31944ft 436kts
01-Oct-22 16:41 35.734328 -120.478083 295 31944ft 435kts
01-Oct-22 16:42 35.785586 -120.612892 295 31944ft 434kts
01-Oct-22 16:43 35.836737 -120.747678 294 31944ft 435kts
01-Oct-22 16:44 35.887637 -120.882341 295 31945ft 435kts
01-Oct-22 16:45 35.938648 -121.017784 295 31944ft 437kts
01-Oct-22 16:46 35.989533 -121.153484 295 31939ft 432kts
01-Oct-22 16:47 36.039446 -121.287111 295 31949ft 430kts
01-Oct-22 16:48 36.109986 -121.395866 325 31420ft 407kts
01-Oct-22 16:49 36.205142 -121.471323 327 30317ft 392kts
01-Oct-22 16:50 36.298743 -121.544623 327 28474ft 388kts
01-Oct-22 16:51 36.389156 -121.615562 327 26412ft 376kts
01-Oct-22 16:52 36.477041 -121.684746 326 24400ft 373kts
01-Oct-22 16:53 36.562884 -121.752545 326 22418ft 366kts
01-Oct-22 16:54 36.646358 -121.818649 326 20442ft 352kts
01-Oct-22 16:55 36.728200 -121.881749 332 18503ft 338kts
01-Oct-22 16:56 36.817739 -121.915531 346 16703ft 341kts
01-Oct-22 16:57 36.907877 -121.940659 346 14831ft 327kts
01-Oct-22 16:58 36.994105 -121.969018 341 13035ft 317kts
01-Oct-22 16:59 37.077732 -122.002100 341 11245ft 312kts
01-Oct-22 17:00 37.157730 -122.033389 341 10020ft 276kts
01-Oct-22 17:01 37.231133 -122.062158 341 8820ft 271kts
01-Oct-22 17:02 37.301465 -122.089786 341 7410ft 262kts
01-Oct-22 17:03 37.369749 -122.116709 341 6098ft 258kts
01-Oct-22 17:04 37.436470 -122.139884 344 4992ft 241kts
01-Oct-22 17:05 37.499178 -122.161383 344 3197ft 229kts
01-Oct-22 17:06 37.547902 -122.197113 289 2695ft 212kts
01-Oct-22 17:07 37.569310 -122.257520 299 1728ft 173kts
01-Oct-22 17:08 37.588456 -122.303113 295 968ft 141kts
01-Oct-22 17:09 37.606875 -122.346741 293 264ft 139kts
01-Oct-22 17:10 37.619939 -122.378105 285 28ft 16kts
01-Oct-22 17:11 37.618695 -122.379920 174 32ft 18kts
01-Oct-22 17:12 37.614251 -122.381219 208 32ft 11kts
01-Oct-22 17:13 37.613250 -122.383233 245 32ft 1kts
01-Oct-22 17:14 37.613241 -122.383257 245 32ft 0kts

Navigation Log

Ident Type
Flight plan parsing failed, navigation log unavailable